createdAt,value
2018-12-04T00:00:58.876Z,63.37
2018-12-04T00:03:25.721Z,71.47
2018-12-04T00:05:52.576Z,68.07
2018-12-04T00:08:19.554Z,69.07
2018-12-04T00:10:46.474Z,64.07
2018-12-04T00:14:10.870Z,65.33
2018-12-04T00:19:48.300Z,61.80
2018-12-04T00:22:15.060Z,58.40
2018-12-04T00:24:41.852Z,62.07
2018-12-04T00:27:08.566Z,63.67
2018-12-04T00:29:35.323Z,69.77
2018-12-04T00:32:02.195Z,68.63
2018-12-04T00:34:28.967Z,65.50
2018-12-04T00:36:55.727Z,62.30
2018-12-04T00:39:22.443Z,58.70
2018-12-04T00:41:49.350Z,57.27
2018-12-04T00:44:16.111Z,51.53
2018-12-04T00:46:42.841Z,48.57
2018-12-04T00:49:09.593Z,45.70
2018-12-04T00:51:36.567Z,46.93
2018-12-04T00:54:03.421Z,44.57
2018-12-04T00:56:30.162Z,47.37
2018-12-04T00:58:57.005Z,44.37
2018-12-04T01:01:23.715Z,47.37
2018-12-04T01:03:50.580Z,47.37
2018-12-04T01:06:17.394Z,46.60
2018-12-04T01:08:44.133Z,47.47
2018-12-04T01:11:10.831Z,49.73
2018-12-04T01:13:37.851Z,46.97
2018-12-04T01:16:04.571Z,45.83
2018-12-04T01:18:31.512Z,48.57
2018-12-04T01:20:58.263Z,46.27
2018-12-04T01:23:24.994Z,45.73
2018-12-04T01:25:51.695Z,46.33
2018-12-04T01:28:18.477Z,37.83
2018-12-04T01:30:45.194Z,38.77
2018-12-04T01:33:11.955Z,37.63
2018-12-04T01:35:43.693Z,39.30
2018-12-04T01:38:10.416Z,39.10
2018-12-04T01:40:37.139Z,37.40
2018-12-04T01:43:03.895Z,41.57
2018-12-04T01:45:30.715Z,38.93
2018-12-04T01:47:57.557Z,34.17
2018-12-04T01:50:24.302Z,33.30
2018-12-04T01:52:51.004Z,32.93
2018-12-04T01:55:17.731Z,28.00
2018-12-04T01:57:44.562Z,30.57
2018-12-04T02:00:11.433Z,29.10
2018-12-04T02:02:38.147Z,28.50
2018-12-04T02:05:05.041Z,31.40
2018-12-04T02:07:31.758Z,31.33
2018-12-04T02:09:58.469Z,31.93
2018-12-04T02:12:25.223Z,31.03
2018-12-04T02:14:51.950Z,28.10
2018-12-04T02:17:18.658Z,26.23
2018-12-04T02:19:45.410Z,26.30
2018-12-04T02:22:12.235Z,31.47
2018-12-04T02:24:38.980Z,26.80
2018-12-04T02:27:05.750Z,22.57
2018-12-04T02:29:32.571Z,22.93
2018-12-04T02:31:59.296Z,21.63
2018-12-04T02:34:26.065Z,21.37
2018-12-04T02:36:52.856Z,24.03
2018-12-04T02:39:19.630Z,23.57
2018-12-04T02:41:46.383Z,24.37
2018-12-04T02:44:13.083Z,26.57
2018-12-04T02:46:39.799Z,25.20
2018-12-04T02:49:06.560Z,25.00
2018-12-04T02:51:33.248Z,24.17
2018-12-04T02:53:59.936Z,23.00
2018-12-04T02:56:26.740Z,23.80
2018-12-04T02:58:53.439Z,23.93
2018-12-04T03:01:20.176Z,20.30
2018-12-04T03:03:47.036Z,22.13
2018-12-04T03:06:13.734Z,23.20
2018-12-04T03:08:40.437Z,22.90
2018-12-04T03:11:07.171Z,25.97
2018-12-04T03:13:33.878Z,22.20
2018-12-04T03:16:00.562Z,21.00
2018-12-04T03:18:27.532Z,20.00
2018-12-04T03:20:54.217Z,21.00
2018-12-04T03:23:20.909Z,18.37
2018-12-04T03:25:47.673Z,21.30
2018-12-04T03:28:14.397Z,29.60
2018-12-04T03:30:41.101Z,37.63
2018-12-04T03:33:07.897Z,29.90
2018-12-04T03:35:34.579Z,28.63
2018-12-04T03:40:34.389Z,25.17
2018-12-04T03:43:01.196Z,31.10
2018-12-04T03:45:27.930Z,29.33
2018-12-04T03:47:54.674Z,25.60
2018-12-04T03:50:21.352Z,24.60
2018-12-04T03:52:48.365Z,26.87
2018-12-04T03:55:15.116Z,28.37
2018-12-04T03:57:41.796Z,28.03
2018-12-04T04:00:08.814Z,29.47
2018-12-04T04:02:35.570Z,31.77
2018-12-04T04:05:02.262Z,26.83
2018-12-04T04:07:28.942Z,29.13
2018-12-04T04:09:55.686Z,31.07
2018-12-04T04:12:22.535Z,27.47
2018-12-04T04:14:49.302Z,29.97
2018-12-04T04:17:16.049Z,29.33
2018-12-04T04:19:42.735Z,29.67
2018-12-04T04:22:09.966Z,29.93
2018-12-04T04:24:36.741Z,30.80
2018-12-04T04:27:03.450Z,29.03
2018-12-04T04:29:30.162Z,33.80
2018-12-04T04:31:57.122Z,33.50
2018-12-04T04:34:23.851Z,30.97
2018-12-04T04:36:50.559Z,36.63
2018-12-04T04:39:17.356Z,33.73
2018-12-04T04:41:44.076Z,35.33
2018-12-04T04:44:11.120Z,34.30
2018-12-04T04:46:37.882Z,35.77
2018-12-04T04:49:04.684Z,34.50
2018-12-04T04:51:31.394Z,27.80
2018-12-04T04:53:58.145Z,32.83
2018-12-04T04:56:24.849Z,30.87
2018-12-04T04:58:51.703Z,31.30
2018-12-04T05:01:18.453Z,33.53
2018-12-04T05:03:45.164Z,34.87
2018-12-04T05:06:11.895Z,31.37
2018-12-04T05:08:38.649Z,30.37
2018-12-04T05:11:05.367Z,29.33
2018-12-04T05:13:32.209Z,32.77
2018-12-04T05:15:58.965Z,33.33
2018-12-04T05:18:25.677Z,31.63
2018-12-04T05:20:52.449Z,34.10
2018-12-04T05:23:19.201Z,32.40
2018-12-04T05:25:45.921Z,32.20
2018-12-04T05:28:12.636Z,33.23
2018-12-04T05:30:39.541Z,32.97
2018-12-04T05:33:06.259Z,27.20
2018-12-04T05:35:32.979Z,28.47
2018-12-04T05:37:59.721Z,29.37
2018-12-04T05:40:26.439Z,25.50
2018-12-04T05:42:53.155Z,27.17
2018-12-04T05:45:25.842Z,30.63
2018-12-04T05:47:52.548Z,25.00
2018-12-04T05:50:19.365Z,28.03
2018-12-04T05:52:48.177Z,31.60
2018-12-04T05:55:15.024Z,30.27
2018-12-04T05:57:41.868Z,31.50
2018-12-04T06:00:08.859Z,32.07
2018-12-04T06:02:35.694Z,30.27
2018-12-04T06:05:02.433Z,32.10
2018-12-04T06:07:29.893Z,31.10
2018-12-04T06:09:56.748Z,32.70
2018-12-04T06:18:18.441Z,34.60
2018-12-04T06:20:45.254Z,30.90
2018-12-04T06:23:11.966Z,32.37
2018-12-04T06:25:38.671Z,35.40
2018-12-04T06:28:05.429Z,35.90
2018-12-04T06:30:32.623Z,34.00
2018-12-04T06:32:59.403Z,36.57
2018-12-04T06:35:26.150Z,33.63
2018-12-04T06:37:52.884Z,36.17
2018-12-04T06:40:20.082Z,34.40
2018-12-04T06:42:46.851Z,33.03
2018-12-04T06:45:13.568Z,34.33
2018-12-04T06:47:40.278Z,39.43
2018-12-04T06:50:08.474Z,34.53
2018-12-04T06:52:35.193Z,36.67
2018-12-04T06:55:01.916Z,34.50
2018-12-04T06:57:28.679Z,35.53
2018-12-04T06:59:55.391Z,38.03
2018-12-04T07:02:22.425Z,35.97
2018-12-04T07:04:49.963Z,36.57
2018-12-04T07:07:16.721Z,33.97
2018-12-04T07:09:43.559Z,33.87
2018-12-04T07:12:10.320Z,38.70
2018-12-04T07:14:37.032Z,33.10
2018-12-04T07:17:03.759Z,35.60
2018-12-04T07:19:30.575Z,36.50
2018-12-04T07:21:57.623Z,36.90
2018-12-04T07:24:24.439Z,34.43
2018-12-04T07:26:51.190Z,37.13
2018-12-04T07:29:18.141Z,36.37
2018-12-04T07:31:44.858Z,36.33
2018-12-04T07:34:11.605Z,40.37
2018-12-04T07:36:38.365Z,39.90
2018-12-04T07:39:06.037Z,41.20
2018-12-04T07:41:32.942Z,44.80
2018-12-04T07:43:59.648Z,44.27
2018-12-04T07:46:26.571Z,48.00
2018-12-04T07:48:53.519Z,46.37
2018-12-04T07:51:20.274Z,48.03
2018-12-04T07:53:46.991Z,49.70
2018-12-04T07:56:13.769Z,46.70
2018-12-04T07:58:40.571Z,47.93
2018-12-04T08:01:07.296Z,46.70
2018-12-04T08:03:34.288Z,50.50
2018-12-04T08:06:03.007Z,49.30
2018-12-04T08:08:29.722Z,50.37
2018-12-04T08:10:56.477Z,52.17
2018-12-04T08:13:23.357Z,50.37
2018-12-04T08:15:50.066Z,57.67
2018-12-04T08:18:16.831Z,50.23
2018-12-04T08:20:43.539Z,53.13
2018-12-04T08:23:10.448Z,60.77
2018-12-04T08:25:37.317Z,60.00
2018-12-04T08:28:04.057Z,61.50
2018-12-04T08:30:30.934Z,61.97
2018-12-04T08:32:57.908Z,62.87
2018-12-04T08:35:24.615Z,62.87
2018-12-04T08:37:51.334Z,61.17
2018-12-04T08:40:18.104Z,65.67
2018-12-04T08:42:44.850Z,62.67
2018-12-04T08:45:11.651Z,65.17
2018-12-04T08:47:38.418Z,65.77
2018-12-04T08:50:05.453Z,60.47
2018-12-04T08:52:32.185Z,61.57
2018-12-04T08:54:58.947Z,62.63
2018-12-04T08:57:25.664Z,65.70
2018-12-04T08:59:52.387Z,57.67
2018-12-04T09:02:19.145Z,58.87
2018-12-04T09:04:45.989Z,58.73
2018-12-04T09:07:12.698Z,63.97
2018-12-04T09:09:39.469Z,59.60
2018-12-04T09:12:06.395Z,57.97
2018-12-04T09:14:38.154Z,60.37
2018-12-04T09:17:02.319Z,57.30
2018-12-04T09:19:29.066Z,59.73
2018-12-04T09:21:55.856Z,56.63
2018-12-04T09:24:22.856Z,57.63
2018-12-04T09:26:49.955Z,58.33
2018-12-04T09:29:16.690Z,58.17
2018-12-04T09:31:43.593Z,64.57
2018-12-04T09:34:10.309Z,63.20
2018-12-04T09:36:37.019Z,62.37
2018-12-04T09:39:05.221Z,63.17
2018-12-04T09:41:32.053Z,66.40
2018-12-04T09:43:58.771Z,63.60
2018-12-04T09:46:25.537Z,71.13
2018-12-04T09:48:52.292Z,76.70
2018-12-04T09:51:19.024Z,71.37
2018-12-04T09:53:45.835Z,74.73
2018-12-04T09:56:12.554Z,73.03
2018-12-04T09:58:39.265Z,75.97
2018-12-04T10:01:06.033Z,71.13
2018-12-04T10:03:32.873Z,66.70
2018-12-04T10:05:59.603Z,67.93
2018-12-04T10:08:26.348Z,59.90
2018-12-04T10:10:53.058Z,67.47
2018-12-04T10:13:19.788Z,67.83
2018-12-04T10:15:46.662Z,66.20
2018-12-04T10:18:13.363Z,69.70
2018-12-04T10:20:40.073Z,58.77
2018-12-04T10:23:06.840Z,66.10
2018-12-04T10:25:33.715Z,65.53
2018-12-04T10:28:01.048Z,66.47
2018-12-04T10:30:27.997Z,64.20
2018-12-04T10:32:54.712Z,64.73
2018-12-04T10:35:21.439Z,65.67
2018-12-04T10:37:48.187Z,69.17
2018-12-04T10:40:14.924Z,69.00
2018-12-04T10:42:41.654Z,70.47
2018-12-04T10:45:08.410Z,65.90
2018-12-04T10:47:35.244Z,64.80
2018-12-04T10:50:02.083Z,60.90
2018-12-04T10:52:28.822Z,62.40
2018-12-04T10:54:55.638Z,55.73
2018-12-04T10:57:22.338Z,63.10
2018-12-04T10:59:49.186Z,57.67
2018-12-04T11:02:21.687Z,63.83
2018-12-04T11:04:48.550Z,65.13
2018-12-04T11:07:15.360Z,63.43
2018-12-04T11:09:42.563Z,66.73
2018-12-04T11:12:12.230Z,61.90
2018-12-04T11:14:38.071Z,59.77
2018-12-04T11:17:04.782Z,60.83
2018-12-04T11:19:31.642Z,60.70
2018-12-04T11:21:58.397Z,61.90
2018-12-04T11:24:25.126Z,56.43
2018-12-04T11:26:52.485Z,63.93
2018-12-04T11:29:19.344Z,56.97
2018-12-04T11:31:46.408Z,58.27
2018-12-04T11:34:13.135Z,55.80
2018-12-04T11:36:39.891Z,55.63
2018-12-04T11:39:06.936Z,53.87
2018-12-04T11:41:33.847Z,54.57
2018-12-04T11:44:00.613Z,55.97
2018-12-04T11:46:27.564Z,58.90
2018-12-04T11:48:54.277Z,56.40
2018-12-04T11:51:21.015Z,59.57
2018-12-04T11:53:47.750Z,64.50
2018-12-04T11:56:14.452Z,61.97
2018-12-04T11:58:41.249Z,63.23
2018-12-04T12:01:08.389Z,56.60
2018-12-04T12:03:35.330Z,51.47
2018-12-04T12:06:02.115Z,51.47
2018-12-04T12:08:28.848Z,43.93
2018-12-04T12:10:55.757Z,47.87
2018-12-04T12:13:22.538Z,45.10
2018-12-04T12:15:49.242Z,39.40
2018-12-04T12:18:16.085Z,36.27
2018-12-04T12:20:42.868Z,27.33
2018-12-04T12:23:09.587Z,34.07
2018-12-04T12:25:36.315Z,35.27
2018-12-04T12:28:03.195Z,30.80
2018-12-04T12:30:29.906Z,37.20
2018-12-04T12:32:56.634Z,29.20
2018-12-04T12:35:23.582Z,29.27
2018-12-04T12:37:50.312Z,39.50
2018-12-04T12:40:17.058Z,25.00
2018-12-04T12:42:43.809Z,39.30
2018-12-04T12:45:10.521Z,26.90
2018-12-04T12:47:37.233Z,45.57
2018-12-04T12:50:04.424Z,35.10
2018-12-04T12:52:31.133Z,33.20
2018-12-04T12:54:58.062Z,20.77
2018-12-04T12:57:24.859Z,22.67
2018-12-04T12:59:51.676Z,24.10
2018-12-04T13:02:18.376Z,31.00
2018-12-04T13:04:45.131Z,18.20
2018-12-04T13:07:12.062Z,23.53
2018-12-04T13:09:39.366Z,29.03
2018-12-04T13:12:06.326Z,11.73
2018-12-04T13:14:33.398Z,13.10
2018-12-04T13:17:00.180Z,7.17
2018-12-04T13:19:27.545Z,8.27
2018-12-04T13:21:54.328Z,12.87
2018-12-04T13:24:21.057Z,12.27
2018-12-04T13:26:48.235Z,11.63
2018-12-04T13:29:15.095Z,8.40
2018-12-04T13:31:41.808Z,21.80
2018-12-04T13:34:08.579Z,39.33
2018-12-04T13:36:35.340Z,30.23
2018-12-04T13:39:02.077Z,7.67
2018-12-04T13:41:28.846Z,11.27
2018-12-04T13:43:55.575Z,19.87
2018-12-04T13:46:22.316Z,21.50
2018-12-04T13:48:49.195Z,15.27
2018-12-04T13:51:15.915Z,14.87
2018-12-04T13:53:42.702Z,19.03
2018-12-04T13:56:09.597Z,22.27
2018-12-04T13:58:36.434Z,23.02
2018-12-04T14:01:03.135Z,17.07
2018-12-04T14:03:29.885Z,18.33
2018-12-04T14:05:56.756Z,15.93
2018-12-04T14:08:23.631Z,17.23
2018-12-04T14:10:50.385Z,15.77
2018-12-04T14:13:17.319Z,18.83
2018-12-04T14:15:44.042Z,45.87
2018-12-04T14:18:10.887Z,21.90
2018-12-04T14:20:37.634Z,18.80
2018-12-04T14:23:04.477Z,14.77
2018-12-04T14:25:31.380Z,22.60
2018-12-04T14:27:58.571Z,13.80
2018-12-04T14:30:25.443Z,20.63
2018-12-04T14:32:52.243Z,29.70
2018-12-04T14:35:19.048Z,41.07
2018-12-04T14:37:45.759Z,45.93
2018-12-04T14:40:12.772Z,25.97
2018-12-04T14:42:39.691Z,27.30
2018-12-04T14:45:06.425Z,13.23
2018-12-04T14:47:33.197Z,17.90
2018-12-04T14:49:59.908Z,10.90
2018-12-04T14:52:26.631Z,23.70
2018-12-04T14:54:53.402Z,11.13
2018-12-04T14:57:20.144Z,11.37
2018-12-04T14:59:46.864Z,25.67
2018-12-04T15:02:13.640Z,33.77
2018-12-04T15:04:40.345Z,28.20
2018-12-04T15:07:07.069Z,20.60
2018-12-04T15:09:33.840Z,21.23
2018-12-04T15:12:00.725Z,51.00
2018-12-04T15:14:27.671Z,21.60
2018-12-04T15:16:55.150Z,18.13
2018-12-04T15:19:22.700Z,18.43
2018-12-04T15:21:49.439Z,22.50
2018-12-04T15:24:16.232Z,29.00
2018-12-04T15:26:43.200Z,34.07
2018-12-04T15:29:10.037Z,38.27
2018-12-04T15:31:37.089Z,36.60
2018-12-04T15:34:04.029Z,34.43
2018-12-04T15:36:30.847Z,28.83
2018-12-04T15:38:57.748Z,30.33
2018-12-04T15:41:24.490Z,30.73
2018-12-04T15:43:51.338Z,25.90
2018-12-04T15:46:18.235Z,27.00
2018-12-04T15:48:45.102Z,23.23
2018-12-04T15:51:11.941Z,28.37
2018-12-04T15:53:38.792Z,34.70
2018-12-04T15:56:05.575Z,36.50
2018-12-04T15:58:32.281Z,31.63
2018-12-04T16:00:59.937Z,34.53
2018-12-04T16:03:26.925Z,34.93
2018-12-04T16:05:53.724Z,27.33
2018-12-04T16:08:20.551Z,32.53
2018-12-04T16:10:47.264Z,40.53
2018-12-04T16:13:14.694Z,34.37
2018-12-04T16:15:41.530Z,32.30
2018-12-04T16:18:08.263Z,28.17
2018-12-04T16:20:34.991Z,30.00
2018-12-04T16:23:01.760Z,31.67
2018-12-04T16:25:28.476Z,35.40
2018-12-04T16:27:55.192Z,31.83
2018-12-04T16:30:22.059Z,29.33
2018-12-04T16:32:48.799Z,30.50
2018-12-04T16:35:15.553Z,26.70
2018-12-04T16:37:42.313Z,31.20
2018-12-04T16:40:09.128Z,28.33
2018-12-04T16:42:35.909Z,25.60
2018-12-04T16:45:02.709Z,33.03
2018-12-04T16:47:29.427Z,29.17
2018-12-04T16:49:56.296Z,38.10
2018-12-04T16:52:23.044Z,42.13
2018-12-04T16:54:49.906Z,48.10
2018-12-04T16:57:16.636Z,44.73
2018-12-04T16:59:43.400Z,50.50
2018-12-04T17:02:10.154Z,52.70
2018-12-04T17:04:36.918Z,59.77
2018-12-04T17:07:03.688Z,62.93
2018-12-04T17:09:30.427Z,71.67
2018-12-04T17:11:57.179Z,65.47
2018-12-04T17:14:24.206Z,85.67
2018-12-04T17:16:50.914Z,84.43
2018-12-04T17:19:17.738Z,70.87
2018-12-04T17:21:44.504Z,72.10
2018-12-04T17:24:11.469Z,73.63
2018-12-04T17:26:38.208Z,60.10
2018-12-04T17:29:05.182Z,61.77
2018-12-04T17:31:31.962Z,65.73
2018-12-04T17:33:58.687Z,55.27
2018-12-04T17:36:25.462Z,45.60
2018-12-04T17:38:52.178Z,58.37
2018-12-04T17:41:18.912Z,55.17
2018-12-04T17:43:51.572Z,63.97
2018-12-04T17:46:18.504Z,73.20
2018-12-04T17:48:45.241Z,67.13
2018-12-04T17:51:12.713Z,56.00
2018-12-04T17:53:39.452Z,60.90
2018-12-04T17:56:06.165Z,64.33
2018-12-04T17:58:32.953Z,63.90
2018-12-04T18:00:59.765Z,62.67
2018-12-04T18:03:26.650Z,62.07
2018-12-04T18:05:53.423Z,54.23
2018-12-04T18:08:20.253Z,58.93
2018-12-04T18:10:46.965Z,64.47
2018-12-04T18:13:14.060Z,77.63
2018-12-04T18:15:40.795Z,83.53
2018-12-04T18:18:07.654Z,68.87
2018-12-04T18:20:34.522Z,77.27
2018-12-04T18:23:01.244Z,60.53
2018-12-04T18:25:27.968Z,60.93
2018-12-04T18:27:54.733Z,56.17
2018-12-04T18:30:21.727Z,64.77
2018-12-04T18:32:48.471Z,70.93
2018-12-04T18:35:15.616Z,75.37
2018-12-04T18:37:42.359Z,66.27
2018-12-04T18:40:09.091Z,70.17
2018-12-04T18:42:35.863Z,77.83
2018-12-04T18:45:02.569Z,74.90
2018-12-04T18:47:29.481Z,73.50
2018-12-04T18:49:56.267Z,73.60
2018-12-04T18:52:23.890Z,71.27
2018-12-04T18:54:50.901Z,76.73
2018-12-04T18:57:17.975Z,76.20
2018-12-04T18:59:44.721Z,66.67
2018-12-04T19:02:11.564Z,81.27
2018-12-04T19:04:38.328Z,76.67
2018-12-04T19:07:05.093Z,72.93
2018-12-04T19:09:31.812Z,90.87
2018-12-04T19:11:58.771Z,82.53
2018-12-04T19:14:25.490Z,78.13
2018-12-04T19:16:52.206Z,77.80
2018-12-04T19:19:19.254Z,80.10
2018-12-04T19:21:46.031Z,81.77
2018-12-04T19:24:12.771Z,78.97
2018-12-04T19:26:39.651Z,72.93
2018-12-04T19:29:06.445Z,76.63
2018-12-04T19:31:33.265Z,85.93
2018-12-04T19:34:01.276Z,79.10
2018-12-04T19:36:28.075Z,83.73
2018-12-04T19:38:54.913Z,89.03
2018-12-04T19:41:21.802Z,87.50
2018-12-04T19:43:48.521Z,93.70
2018-12-04T19:46:15.234Z,99.63
2018-12-04T19:48:42.183Z,83.60
2018-12-04T19:51:09.021Z,82.60
2018-12-04T19:53:35.751Z,86.40
2018-12-04T19:56:02.631Z,79.37
2018-12-04T19:58:29.399Z,77.03
2018-12-04T20:00:56.204Z,70.80
2018-12-04T20:03:23.057Z,88.43
2018-12-04T20:05:49.788Z,101.90
2018-12-04T20:08:16.531Z,93.77
2018-12-04T20:10:43.319Z,90.20
2018-12-04T20:13:10.059Z,88.93
2018-12-04T20:15:36.898Z,89.53
2018-12-04T20:18:03.679Z,90.13
2018-12-04T20:20:30.464Z,92.90
2018-12-04T20:22:57.185Z,94.83
2018-12-04T20:25:24.387Z,93.13
2018-12-04T20:27:51.130Z,89.60
2018-12-04T20:30:18.049Z,85.17
2018-12-04T20:32:44.969Z,83.23
2018-12-04T20:35:11.690Z,89.03
2018-12-04T20:37:38.405Z,90.57
2018-12-04T20:40:05.271Z,79.77
2018-12-04T20:42:32.130Z,83.30
2018-12-04T20:44:58.837Z,92.30
2018-12-04T20:47:25.928Z,94.00
2018-12-04T20:49:52.666Z,98.13
2018-12-04T20:52:19.403Z,102.57
2018-12-04T20:54:46.178Z,101.87
2018-12-04T20:57:12.910Z,108.47
2018-12-04T20:59:39.639Z,110.63
2018-12-04T21:02:06.400Z,114.40
2018-12-04T21:04:33.218Z,111.70
2018-12-04T21:07:00.052Z,103.53
2018-12-04T21:09:27.247Z,101.33
2018-12-04T21:11:54.175Z,102.50
2018-12-04T21:14:20.910Z,95.20
2018-12-04T21:16:47.657Z,105.40
2018-12-04T21:19:14.386Z,95.30
2018-12-04T21:21:41.219Z,107.17
2018-12-04T21:24:07.993Z,105.77
2018-12-04T21:26:36.948Z,127.33
2018-12-04T21:29:09.417Z,135.93
2018-12-04T21:31:42.035Z,139.43
2018-12-04T21:34:14.556Z,122.40
2018-12-04T21:36:47.018Z,127.30
2018-12-04T21:39:15.974Z,104.43
2018-12-04T21:41:48.436Z,89.13
2018-12-04T21:44:21.034Z,80.37
2018-12-04T21:46:53.493Z,98.40
2018-12-04T21:49:20.221Z,98.13
2018-12-04T21:51:46.973Z,80.20
2018-12-04T21:54:18.203Z,84.47
2018-12-04T21:56:44.932Z,69.53
2018-12-04T21:59:11.870Z,66.93
2018-12-04T22:01:38.596Z,56.00
2018-12-04T22:04:05.305Z,60.30
2018-12-04T22:06:32.358Z,55.20
2018-12-04T22:08:59.102Z,74.47
2018-12-04T22:11:25.919Z,64.63
2018-12-04T22:13:52.759Z,74.70
2018-12-04T22:16:19.474Z,58.87
2018-12-04T22:18:46.263Z,77.43
2018-12-04T22:21:13.129Z,57.37
2018-12-04T22:23:39.853Z,62.80
2018-12-04T22:26:06.580Z,63.50
2018-12-04T22:28:33.656Z,61.33
2018-12-04T22:31:00.360Z,60.43
2018-12-04T22:33:27.081Z,57.07
2018-12-04T22:35:54.176Z,60.60
2018-12-04T22:38:20.973Z,63.73
2018-12-04T22:40:47.680Z,47.63
2018-12-04T22:43:14.440Z,48.10
2018-12-04T22:45:41.195Z,46.60
2018-12-04T22:48:07.908Z,52.30
2018-12-04T22:50:34.915Z,51.40
2018-12-04T22:53:01.644Z,53.90
2018-12-04T22:55:28.482Z,52.00
2018-12-04T22:57:55.257Z,39.80
2018-12-04T23:00:23.175Z,40.53
2018-12-04T23:02:49.882Z,39.80
2018-12-04T23:05:16.644Z,41.17
2018-12-04T23:07:43.360Z,35.00
2018-12-04T23:10:10.331Z,39.20
2018-12-04T23:12:37.424Z,42.40
2018-12-04T23:15:04.742Z,38.27
2018-12-04T23:17:31.459Z,37.97
2018-12-04T23:19:58.274Z,38.67
2018-12-04T23:22:25.099Z,45.03
2018-12-04T23:24:51.851Z,45.37
2018-12-04T23:27:18.619Z,56.20
2018-12-04T23:29:45.324Z,60.47
2018-12-04T23:32:12.039Z,53.30
2018-12-04T23:34:38.877Z,40.80
2018-12-04T23:37:05.771Z,44.27
2018-12-04T23:39:32.559Z,47.30
2018-12-04T23:41:59.337Z,46.93
2018-12-04T23:44:26.179Z,45.77
2018-12-04T23:46:52.897Z,44.53
2018-12-04T23:49:19.661Z,47.33
2018-12-04T23:51:46.466Z,47.50
2018-12-04T23:54:13.181Z,52.17
2018-12-04T23:56:40.401Z,49.73
2018-12-04T23:59:07.920Z,53.70
